地図

経路データ

SID SEASON NUMBER BASIN SUBBASIN NAME ISO_TIME NATURE LAT LON WMO_WIND WMO_PRES WMO_AGENCY TRACK_TYPE DIST2LAND LANDFALL IFLAG USA_AGENCY USA_ATCF_ID USA_LAT USA_LON USA_RECORD USA_STATUS USA_WIND USA_PRES USA_SSHS USA_R34_NE USA_R34_SE USA_R34_SW USA_R34_NW USA_R50_NE USA_R50_SE USA_R50_SW USA_R50_NW USA_R64_NE USA_R64_SE USA_R64_SW USA_R64_NW USA_POCI USA_ROCI USA_RMW USA_EYE TOKYO_LAT TOKYO_LON TOKYO_GRADE TOKYO_WIND TOKYO_PRES TOKYO_R50_DIR TOKYO_R50_LONG TOKYO_R50_SHORT TOKYO_R30_DIR TOKYO_R30_LONG TOKYO_R30_SHORT TOKYO_LAND CMA_LAT CMA_LON CMA_CAT CMA_WIND CMA_PRES HKO_LAT HKO_LON HKO_CAT HKO_WIND HKO_PRES NEWDELHI_LAT NEWDELHI_LON NEWDELHI_GRADE NEWDELHI_WIND NEWDELHI_PRES NEWDELHI_CI NEWDELHI_DP NEWDELHI_POCI REUNION_LAT REUNION_LON REUNION_TYPE REUNION_WIND REUNION_PRES REUNION_TNUM REUNION_CI REUNION_RMW REUNION_R34_NE REUNION_R34_SE REUNION_R34_SW REUNION_R34_NW REUNION_R50_NE REUNION_R50_SE REUNION_R50_SW REUNION_R50_NW REUNION_R64_NE REUNION_R64_SE REUNION_R64_SW REUNION_R64_NW BOM_LAT BOM_LON BOM_TYPE BOM_WIND BOM_PRES BOM_TNUM BOM_CI BOM_RMW BOM_R34_NE BOM_R34_SE BOM_R34_SW BOM_R34_NW BOM_R50_NE BOM_R50_SE BOM_R50_SW BOM_R50_NW BOM_R64_NE BOM_R64_SE BOM_R64_SW BOM_R64_NW BOM_ROCI BOM_POCI BOM_EYE BOM_POS_METHOD BOM_PRES_METHOD NADI_LAT NADI_LON NADI_CAT NADI_WIND NADI_PRES WELLINGTON_LAT WELLINGTON_LON WELLINGTON_WIND WELLINGTON_PRES DS824_LAT DS824_LON DS824_STAGE DS824_WIND DS824_PRES TD9636_LAT TD9636_LON TD9636_STAGE TD9636_WIND TD9636_PRES TD9635_LAT TD9635_LON TD9635_WIND TD9635_PRES TD9635_ROCI NEUMANN_LAT NEUMANN_LON NEUMANN_CLASS NEUMANN_WIND NEUMANN_PRES MLC_LAT MLC_LON MLC_CLASS MLC_WIND MLC_PRES USA_GUST BOM_GUST BOM_GUST_PER REUNION_GUST REUNION_GUST_PER USA_SEAHGT USA_SEARAD_NE USA_SEARAD_SE USA_SEARAD_SW USA_SEARAD_NW STORM_SPEED STORM_DIR
1932032S17053 1932 10 SI MM NOT_NAMED 1932-02-01 06:00:00 NR -17.1000 53.1000 reunion main 332 327 _____O________ -1 -17.1000 53.1000 99 9.90000 4 200
1932032S17053 1932 10 SI MM NOT_NAMED 1932-02-01 09:00:00 NR -17.2661 53.0409 main 331 331 _____P________ -1 -17.2661 53.0409 99 4 197
1932032S17053 1932 10 SI MM NOT_NAMED 1932-02-01 12:00:00 NR -17.4342 52.9873 main 336 336 _____P________ -1 -17.4342 52.9873 99 4 195
1932032S17053 1932 10 SI MM NOT_NAMED 1932-02-01 15:00:00 NR -17.6063 52.9449 main 338 338 _____P________ -1 -17.6063 52.9449 99 4 190
1932032S17053 1932 10 SI MM NOT_NAMED 1932-02-01 18:00:00 NR -17.7846 52.9194 main 347 347 _____P________ -1 -17.7846 52.9194 99 4 180
1932032S17053 1932 10 SI MM NOT_NAMED 1932-02-01 21:00:00 NR -17.9711 52.9163 main 355 355 _____P________ -1 -17.9711 52.9163 99 4 177
1932032S17053 1932 10 SI MM NOT_NAMED 1932-02-02 00:00:00 NR -18.1678 52.9416 main 364 364 _____P________ -1 -18.1678 52.9416 99 4 169
1932032S17053 1932 10 SI MM NOT_NAMED 1932-02-02 03:00:00 NR -18.3768 53.0009 main 377 353 _____P________ -1 -18.3768 53.0009 99 5 161
1932032S17053 1932 10 SI MM NOT_NAMED 1932-02-02 06:00:00 NR -18.6000 53.1000 reunion main 353 329 _____O________ -1 -18.6000 53.1000 99 9.90000 5 154
1932032S17053 1932 10 SI MM NOT_NAMED 1932-02-02 09:00:00 NR -18.8387 53.2428 main 329 290 _____P________ -1 -18.8387 53.2428 99 6 148
1932032S17053 1932 10 SI MM NOT_NAMED 1932-02-02 12:00:00 NR -19.0904 53.4252 main 290 260 _____P________ -1 -19.0904 53.4252 99 6 144
1932032S17053 1932 10 SI MM NOT_NAMED 1932-02-02 15:00:00 NR -19.3521 53.6409 main 251 214 _____P________ -1 -19.3521 53.6409 99 7 141
1932032S17053 1932 10 SI MM NOT_NAMED 1932-02-02 18:00:00 NR -19.6206 53.8837 main 214 175 _____P________ -1 -19.6206 53.8837 99 7 139
1932032S17053 1932 10 SI MM NOT_NAMED 1932-02-02 21:00:00 NR -19.8927 54.1474 main 175 129 _____P________ -1 -19.8927 54.1474 99 7 137
1932032S17053 1932 10 SI MM NOT_NAMED 1932-02-03 00:00:00 NR -20.1654 54.4256 main 129 91 _____P________ -1 -20.1654 54.4256 99 8 136
1932032S17053 1932 10 SI MM NOT_NAMED 1932-02-03 03:00:00 NR -20.4355 54.7119 main 91 45 _____P________ -1 -20.4355 54.7119 99 8 135
1932032S17053 1932 10 SI MM NOT_NAMED 1932-02-03 06:00:00 NR -20.7000 55.0000 reunion main 45 15 _____O________ -1 -20.7000 55.0000 99 9.90000 7 135
1932032S17053 1932 10 SI MM NOT_NAMED 1932-02-03 09:00:00 NR -20.9464 55.2523 main 11 0 _____P________ -1 -20.9464 55.2523 99 7 136
1932032S17053 1932 10 SI MM NOT_NAMED 1932-02-03 12:00:00 NR -21.1887 55.5096 main 0 0 _____P________ -1 -21.1887 55.5096 99 7 135
1932032S17053 1932 10 SI MM NOT_NAMED 1932-02-03 15:00:00 NR -21.4275 55.7726 main 11 11 _____P________ -1 -21.4275 55.7726 99 7 134
1932032S17053 1932 10 SI MM NOT_NAMED 1932-02-03 18:00:00 NR -21.6639 56.0422 main 49 49 _____P________ -1 -21.6639 56.0422 99 7 133
1932032S17053 1932 10 SI MM NOT_NAMED 1932-02-03 21:00:00 NR -21.8985 56.3189 main 84 84 _____P________ -1 -21.8985 56.3189 99 7 132
1932032S17053 1932 10 SI MM NOT_NAMED 1932-02-04 00:00:00 NR -22.1322 56.6036 main 121 121 _____P________ -1 -22.1322 56.6036 99 7 131
1932032S17053 1932 10 SI MM NOT_NAMED 1932-02-04 03:00:00 NR -22.3658 56.8971 main 167 167 _____P________ -1 -22.3658 56.8971 99 7 130
1932032S17053 1932 10 SI MM NOT_NAMED 1932-02-04 06:00:00 NR -22.6000 57.2000 reunion main 204 204 _____O________ -1 -22.6000 57.2000 99 9.90000 7 130
1932032S17053 1932 10 SI MM NOT_NAMED 1932-02-04 09:00:00 NR -22.8090 57.4739 main 242 242 _____P________ -1 -22.8090 57.4739 99 7 129
1932032S17053 1932 10 SI MM NOT_NAMED 1932-02-04 12:00:00 NR -23.0148 57.7529 main 279 279 _____P________ -1 -23.0148 57.7529 99 7 128
1932032S17053 1932 10 SI MM NOT_NAMED 1932-02-04 15:00:00 NR -23.2230 58.0434 main 303 303 _____P________ -1 -23.2230 58.0434 99 7 128
1932032S17053 1932 10 SI MM NOT_NAMED 1932-02-04 18:00:00 NR -23.4394 58.3519 main 332 332 _____P________ -1 -23.4394 58.3519 99 7 127
1932032S17053 1932 10 SI MM NOT_NAMED 1932-02-04 21:00:00 NR -23.6697 58.6849 main 372 372 _____P________ -1 -23.6697 58.6849 99 8 127
1932032S17053 1932 10 SI MM NOT_NAMED 1932-02-05 00:00:00 NR -23.9195 59.0493 main 402 402 _____P________ -1 -23.9195 59.0493 99 9 127
1932032S17053 1932 10 SI MM NOT_NAMED 1932-02-05 03:00:00 NR -24.1944 59.4520 main 453 453 _____P________ -1 -24.1944 59.4520 99 10 127
1932032S17053 1932 10 SI MM NOT_NAMED 1932-02-05 06:00:00 NR -24.5000 59.9000 reunion main 500 500 _____O________ -1 -24.5000 59.9000 99 9.90000 11 127
1932032S17053 1932 10 SI MM NOT_NAMED 1932-02-05 09:00:00 NR -24.8388 60.3819 main 554 554 _____P________ -1 -24.8388 60.3819 99 12 128
1932032S17053 1932 10 SI MM NOT_NAMED 1932-02-05 12:00:00 NR -25.2060 60.9082 main 619 619 _____P________ -1 -25.2060 60.9082 99 13 127
1932032S17053 1932 10 SI MM NOT_NAMED 1932-02-05 15:00:00 NR -25.5978 61.4770 main 689 689 _____P________ -1 -25.5978 61.4770 99 13 127
1932032S17053 1932 10 SI MM NOT_NAMED 1932-02-05 18:00:00 NR -26.0105 62.0866 main 761 761 _____P________ -1 -26.0105 62.0866 99 14 127
1932032S17053 1932 10 SI MM NOT_NAMED 1932-02-05 21:00:00 NR -26.4407 62.7354 main 833 833 _____P________ -1 -26.4407 62.7354 99 15 126
1932032S17053 1932 10 SI MM NOT_NAMED 1932-02-06 00:00:00 NR -26.8847 63.4217 main 920 920 _____P________ -1 -26.8847 63.4217 99 15 126
1932032S17053 1932 10 SI MM NOT_NAMED 1932-02-06 03:00:00 NR -27.3389 64.1438 main 999 999 _____P________ -1 -27.3389 64.1438 99 16 125
1932032S17053 1932 10 SI MM NOT_NAMED 1932-02-06 06:00:00 NR -27.8000 64.9000 reunion main 1094 1094 _____O________ -1 -27.8000 64.9000 99 9.90000 17 124
1932032S17053 1932 10 SI MM NOT_NAMED 1932-02-06 09:00:00 NR -28.3072 65.7708 main 1195 1195 _____P________ -1 -28.3072 65.7708 99 19 123
1932032S17053 1932 10 SI MM NOT_NAMED 1932-02-06 12:00:00 NR -28.8296 66.6974 main 1297 1297 _____P________ -1 -28.8296 66.6974 99 20 122
1932032S17053 1932 10 SI MM NOT_NAMED 1932-02-06 15:00:00 NR -29.3524 67.6538 main 1414 1414 _____P________ -1 -29.3524 67.6538 99 20 122
1932032S17053 1932 10 SI MM NOT_NAMED 1932-02-06 18:00:00 NR -29.8613 68.6132 main 1516 1516 _____P________ -1 -29.8613 68.6132 99 19 121
1932032S17053 1932 10 SI MM NOT_NAMED 1932-02-06 21:00:00 NR -30.3429 69.5472 main 1610 1610 _____P________ -1 -30.3429 69.5472 99 18 121
1932032S17053 1932 10 SI MM NOT_NAMED 1932-02-07 00:00:00 NR -30.7844 70.4266 main 1712 1712 _____P________ -1 -30.7844 70.4266 99 17 120
1932032S17053 1932 10 SI MM NOT_NAMED 1932-02-07 03:00:00 NR -31.1739 71.2211 main 1799 1799 _____P________ -1 -31.1739 71.2211 99 15 120
1932032S17053 1932 10 SI MM NOT_NAMED 1932-02-07 06:00:00 NR -31.5000 71.9000 reunion main 1872 1872 _____O________ -1 -31.5000 71.9000 99 9.90000 12 119
1932032S17053 1932 10 SI MM NOT_NAMED 1932-02-07 09:00:00 NR -31.7556 72.4402 main 1912 1905 _____P________ -1 -31.7556 72.4402 99 9 119
1932032S17053 1932 10 SI MM NOT_NAMED 1932-02-07 12:00:00 NR -31.9477 72.8505 main 1908 1889 _____P________ -1 -31.9477 72.8505 99 7 119
1932032S17053 1932 10 SI MM NOT_NAMED 1932-02-07 15:00:00 NR -32.0864 73.1486 main 1889 1881 _____P________ -1 -32.0864 73.1486 99 5 119
1932032S17053 1932 10 SI MM NOT_NAMED 1932-02-07 18:00:00 NR -32.1811 73.3525 main 1883 1883 _____P________ -1 -32.1811 73.3525 99 3 119
1932032S17053 1932 10 SI MM NOT_NAMED 1932-02-07 21:00:00 NR -32.2411 73.4808 main 1884 1873 _____P________ -1 -32.2411 73.4808 99 2 119
1932032S17053 1932 10 SI MM NOT_NAMED 1932-02-08 00:00:00 NR -32.2751 73.5522 main 1875 1875 _____P________ -1 -32.2751 73.5522 99 1 119
1932032S17053 1932 10 SI MM NOT_NAMED 1932-02-08 03:00:00 NR -32.2918 73.5856 main 1875 1875 _____P________ -1 -32.2918 73.5856 99 0 129
1932032S17053 1932 10 SI MM NOT_NAMED 1932-02-08 06:00:00 NR -32.3000 73.6000 reunion main 1875 _____O________ -1 -32.3000 73.6000 99 9.90000 0 0

IBTrACS Databaseについて

本データベースは、米国NOAAが公開する1842年以降の世界の熱帯低気圧のベストトラックデータアーカイブInternational Best Track Archive for Climate Stewardship (IBTrACS)を、ウェブで閲覧しやすい形式に変換したものです。

最終更新日:2021-12-01